Time;durP1;ratioP1;P1;durP2;ratioP2;P2;SDS_P1;SDS_P2;PMS_P1;PMS_P2;Temp;Humidity;BMP_temperature;BMP_pressure;BME280_temperature;BME280_humidity;BME280_pressure;Samples;Min_cycle;Max_cycle;Signal;HPM_P1;HPM_P2
2022/09/26 00:02:24;;;;;;;3.05;2.42;;;11.20;99.90;;;;;;4993477;28;20206;-63
2022/09/26 00:04:51;;;;;;;4.57;2.55;;;11.50;99.90;;;;;;5005624;28;20198;-63
2022/09/26 00:07:17;;;;;;;3.85;2.70;;;11.20;99.90;;;;;;5005818;28;20430;-62
2022/09/26 00:09:44;;;;;;;4.40;2.50;;;14.00;99.90;;;;;;4977929;28;20206;-63
2022/09/26 00:12:11;;;;;;;7.95;2.25;;;11.20;99.90;;;;;;4997229;28;20220;-62
2022/09/26 00:14:38;;;;;;;5.10;2.75;;;11.20;99.90;;;;;;4985176;28;20234;-62
2022/09/26 00:17:06;;;;;;;5.00;2.70;;;11.30;99.90;;;;;;4991790;28;20198;-62
2022/09/26 00:19:33;;;;;;;3.92;2.38;;;11.20;99.90;;;;;;4992825;28;20219;-62
2022/09/26 00:22:00;;;;;;;8.50;3.08;;;11.30;99.90;;;;;;4998115;28;20854;-62
2022/09/26 00:24:26;;;;;;;8.30;2.42;;;11.30;99.90;;;;;;4996366;28;20856;-62
2022/09/26 00:26:54;;;;;;;8.98;2.95;;;9.50;99.90;;;;;;4975842;28;20214;-62
2022/09/26 00:29:20;;;;;;;4.82;2.95;;;11.30;99.90;;;;;;4981066;28;20195;-62
2022/09/26 00:31:47;;;;;;;8.77;3.20;;;11.20;99.90;;;;;;4986950;28;20206;-62
2022/09/26 00:34:18;;;;;;;6.50;3.10;;;11.30;99.90;;;;;;4991293;28;20236;-62
2022/09/26 00:36:45;;;;;;;3.53;3.03;;;11.30;99.90;;;;;;4994762;28;20690;-62
2022/09/26 00:39:13;;;;;;;8.32;2.97;;;11.30;99.90;;;;;;5000844;28;20202;-62
2022/09/26 00:41:40;;;;;;;8.77;2.95;;;11.30;99.90;;;;;;4981628;28;20691;-62
2022/09/26 00:44:41;;;;;;;4.53;2.58;;;11.30;99.90;;;;;;4994187;28;20226;-63
2022/09/26 00:47:35;;;;;;;4.65;2.25;;;11.30;99.90;;;;;;4984661;28;20213;-63
2022/09/26 00:50:07;;;;;;;4.85;2.58;;;11.30;99.90;;;;;;4996442;28;20293;-62
2022/09/26 00:52:37;;;;;;;5.60;2.80;;;11.30;99.90;;;;;;5008549;28;20230;-62
2022/09/26 00:55:07;;;;;;;6.82;2.60;;;11.30;99.90;;;;;;5007941;28;20237;-63
2022/09/26 00:57:39;;;;;;;2.67;2.47;;;11.30;99.90;;;;;;4981765;28;20206;-63
2022/09/26 01:00:09;;;;;;;6.95;2.60;;;11.40;99.90;;;;;;4993849;28;20218;-63
2022/09/26 01:02:36;;;;;;;4.47;2.35;;;11.30;99.90;;;;;;5000647;28;20679;-62
2022/09/26 01:05:05;;;;;;;4.22;2.58;;;11.10;99.90;;;;;;4983140;28;20205;-62
2022/09/26 01:07:34;;;;;;;4.13;2.40;;;11.60;99.90;;;;;;5004247;28;20225;-63
2022/09/26 01:10:02;;;;;;;3.35;2.45;;;11.20;99.90;;;;;;5003588;28;20222;-63
2022/09/26 01:12:29;;;;;;;2.30;2.10;;;11.40;99.90;;;;;;4982447;28;20398;-62
2022/09/26 01:14:59;;;;;;;1.85;1.73;;;11.40;99.90;;;;;;5005619;28;20230;-62
2022/09/26 01:17:27;;;;;;;5.93;2.17;;;11.40;99.90;;;;;;4991200;28;20310;-62
2022/09/26 01:20:14;;;;;;;7.82;2.60;;;11.30;99.90;;;;;;4984918;28;20206;-62
2022/09/26 01:23:04;;;;;;;4.90;2.35;;;11.40;99.90;;;;;;5002179;28;20675;-63
2022/09/26 01:25:51;;;;;;;2.63;2.10;;;11.40;99.90;;;;;;5003538;28;20290;-63
2022/09/26 01:28:34;;;;;;;2.70;2.47;;;11.40;99.90;;;;;;4977281;28;20233;-63
2022/09/26 01:31:13;;;;;;;5.82;2.20;;;11.40;99.90;;;;;;4994538;28;20608;-63
2022/09/26 01:33:53;;;;;;;2.33;2.00;;;11.40;99.90;;;;;;4992411;28;20923;-63
2022/09/26 01:36:42;;;;;;;3.60;2.20;;;11.40;99.90;;;;;;4976666;28;20221;-63
2022/09/26 01:39:19;;;;;;;2.85;2.22;;;11.40;99.90;;;;;;4992450;28;20198;-63
2022/09/26 01:41:53;;;;;;;3.67;2.33;;;11.40;99.90;;;;;;5000895;28;20402;-63
2022/09/26 01:44:29;;;;;;;4.18;2.75;;;11.50;99.90;;;;;;4977437;28;20210;-62
2022/09/26 01:47:03;;;;;;;7.00;2.72;;;11.50;99.90;;;;;;4989468;28;20213;-63
2022/09/26 01:49:34;;;;;;;4.07;2.92;;;11.60;99.90;;;;;;4989446;28;20243;-64
2022/09/26 01:52:05;;;;;;;6.35;2.33;;;11.50;99.90;;;;;;4981198;28;20248;-63
2022/09/26 01:54:38;;;;;;;6.30;2.50;;;11.60;99.90;;;;;;4998296;28;20230;-63
2022/09/26 01:57:08;;;;;;;4.65;2.33;;;11.60;99.90;;;;;;4988938;28;20217;-63
2022/09/26 01:59:39;;;;;;;3.72;2.50;;;11.50;99.90;;;;;;4972890;28;20687;-63
2022/09/26 02:02:13;;;;;;;3.53;2.20;;;11.60;99.90;;;;;;4986831;28;20430;-63
2022/09/26 02:04:43;;;;;;;5.30;2.20;;;11.60;99.90;;;;;;4987862;28;20203;-63
2022/09/26 02:07:13;;;;;;;5.55;2.53;;;11.50;99.90;;;;;;4986632;28;20213;-63
2022/09/26 02:09:44;;;;;;;3.13;2.17;;;11.60;99.90;;;;;;4985342;28;20206;-63
2022/09/26 02:12:17;;;;;;;2.90;2.03;;;12.00;99.90;;;;;;4990539;28;20971;-63
2022/09/26 02:14:45;;;;;;;4.32;1.92;;;11.70;99.90;;;;;;4970191;28;20256;-63
2022/09/26 02:17:19;;;;;;;3.83;2.22;;;8.40;99.90;;;;;;4978266;28;20292;-63
2022/09/26 02:19:51;;;;;;;4.22;1.92;;;11.60;99.90;;;;;;4984675;28;20206;-63
2022/09/26 02:22:19;;;;;;;2.50;1.80;;;11.70;99.90;;;;;;4986722;28;20396;-63
2022/09/26 02:24:45;;;;;;;3.53;2.20;;;11.70;99.90;;;;;;4987494;28;20206;-63
2022/09/26 02:27:13;;;;;;;3.08;2.30;;;11.70;99.90;;;;;;4991823;28;20679;-63
2022/09/26 02:29:40;;;;;;;3.40;2.10;;;11.70;99.90;;;;;;4997514;28;20671;-63
2022/09/26 02:32:14;;;;;;;4.18;2.40;;;11.70;99.90;;;;;;4971152;28;20256;-63
2022/09/26 02:34:44;;;;;;;2.47;1.98;;;11.70;99.90;;;;;;4987356;28;20226;-63
2022/09/26 02:37:13;;;;;;;4.10;2.47;;;11.70;99.90;;;;;;4970859;28;20817;-63
2022/09/26 02:39:41;;;;;;;3.95;2.38;;;11.70;99.90;;;;;;4996753;28;20206;-63
2022/09/26 02:42:20;;;;;;;7.68;2.30;;;11.70;99.90;;;;;;4999201;28;20670;-63
2022/09/26 02:45:20;;;;;;;5.25;1.90;;;11.50;99.90;;;;;;4998293;28;20602;-63
2022/09/26 02:48:06;;;;;;;5.47;2.10;;;11.70;99.90;;;;;;4968999;28;20849;-63
2022/09/26 02:50:46;;;;;;;3.70;2.38;;;11.70;99.90;;;;;;4994250;28;20285;-63
2022/09/26 02:53:30;;;;;;;2.85;2.25;;;11.70;99.90;;;;;;4988575;28;20404;-62
2022/09/26 02:56:08;;;;;;;3.72;2.40;;;11.70;99.90;;;;;;5009460;28;20203;-63
2022/09/26 02:58:43;;;;;;;2.80;2.20;;;11.70;99.90;;;;;;5009710;28;20206;-63
2022/09/26 03:01:16;;;;;;;2.03;1.83;;;12.10;99.90;;;;;;4975120;28;20295;-63
2022/09/26 03:03:49;;;;;;;4.10;2.20;;;11.70;99.90;;;;;;5008944;28;20206;-63
2022/09/26 03:06:23;;;;;;;4.97;2.40;;;11.70;99.90;;;;;;4971759;28;21314;-63
2022/09/26 03:08:51;;;;;;;2.83;2.20;;;;;;;;;;5002449;28;20673;-63
2022/09/26 03:11:22;;;;;;;4.65;2.28;;;11.70;99.90;;;;;;4989995;28;20816;-63
2022/09/26 03:13:52;;;;;;;3.55;2.58;;;11.70;99.90;;;;;;5008874;28;20210;-64
2022/09/26 03:16:20;;;;;;;4.00;2.25;;;13.40;99.90;;;;;;4976501;28;20202;-63
2022/09/26 03:18:52;;;;;;;4.88;2.47;;;11.70;99.90;;;;;;5010760;28;20198;-63
2022/09/26 03:21:21;;;;;;;4.25;2.20;;;11.80;99.90;;;;;;4996209;28;20206;-63
2022/09/26 03:23:49;;;;;;;4.00;1.80;;;11.70;99.90;;;;;;5000914;28;20221;-63
2022/09/26 03:26:20;;;;;;;3.08;2.05;;;11.70;99.90;;;;;;4989418;28;20213;-63
2022/09/26 03:28:48;;;;;;;3.90;1.92;;;11.70;99.90;;;;;;5009415;28;20194;-63
2022/09/26 03:31:15;;;;;;;3.60;2.33;;;11.70;99.90;;;;;;5001199;28;20230;-63
2022/09/26 03:33:41;;;;;;;2.83;2.30;;;11.70;99.90;;;;;;4976096;28;20225;-63
2022/09/26 03:36:09;;;;;;;4.45;2.25;;;11.60;99.90;;;;;;4989499;28;20214;-63
2022/09/26 03:38:37;;;;;;;3.08;2.33;;;11.60;99.90;;;;;;4995085;28;20269;-63
2022/09/26 03:41:04;;;;;;;3.85;1.95;;;11.60;99.90;;;;;;4997381;28;20234;-63
2022/09/26 03:43:31;;;;;;;4.82;2.13;;;11.70;99.90;;;;;;5005780;28;20260;-63
2022/09/26 03:46:03;;;;;;;3.42;2.10;;;11.70;99.90;;;;;;4997693;28;20229;-62
2022/09/26 03:48:30;;;;;;;8.77;2.45;;;11.70;99.90;;;;;;4967940;28;20366;-63
2022/09/26 03:51:02;;;;;;;2.72;2.20;;;11.70;99.90;;;;;;4983602;28;20202;-64
2022/09/26 03:53:31;;;;;;;2.67;2.10;;;11.70;99.90;;;;;;4982927;28;20279;-63
2022/09/26 03:56:04;;;;;;;3.13;2.42;;;11.80;99.90;;;;;;5003013;28;20229;-62
2022/09/26 03:58:31;;;;;;;4.45;2.10;;;11.70;99.90;;;;;;4989750;28;20198;-63
2022/09/26 04:01:03;;;;;;;5.55;2.10;;;11.50;99.90;;;;;;5002455;28;20206;-63
2022/09/26 04:03:32;;;;;;;5.88;2.40;;;11.70;99.90;;;;;;4975492;28;20237;-63
2022/09/26 04:05:59;;;;;;;3.88;2.03;;;11.50;99.90;;;;;;4997792;28;20302;-63
2022/09/26 04:08:26;;;;;;;4.30;2.45;;;11.70;99.90;;;;;;4993035;28;20989;-62
2022/09/26 04:10:53;;;;;;;7.22;2.67;;;11.70;99.90;;;;;;5005254;28;20938;-62
2022/09/26 04:13:22;;;;;;;3.05;2.13;;;11.80;99.90;;;;;;4976542;28;21395;-63
2022/09/26 04:15:55;;;;;;;3.88;2.40;;;11.80;99.90;;;;;;5001495;28;20337;-63
2022/09/26 04:18:22;;;;;;;5.18;2.65;;;11.30;99.90;;;;;;4976235;28;20549;-63
2022/09/26 04:20:49;;;;;;;3.70;2.63;;;11.90;99.90;;;;;;4990794;28;20673;-63
2022/09/26 04:23:16;;;;;;;5.65;3.22;;;11.90;99.90;;;;;;4995685;28;20400;-62
2022/09/26 04:25:43;;;;;;;11.70;3.15;;;11.80;99.90;;;;;;4984505;28;20210;-62
2022/09/26 04:28:10;;;;;;;5.63;2.78;;;11.80;99.90;;;;;;4969426;28;20230;-62
2022/09/26 04:30:38;;;;;;;2.30;2.10;;;11.80;99.90;;;;;;4983146;28;20273;-63
2022/09/26 04:33:06;;;;;;;3.42;2.47;;;11.80;99.90;;;;;;4987256;28;20214;-63
2022/09/26 04:35:33;;;;;;;3.10;2.45;;;11.70;99.90;;;;;;4952969;28;20841;-63
2022/09/26 04:38:00;;;;;;;4.07;2.35;;;11.90;99.90;;;;;;5000846;28;20424;-63
2022/09/26 04:40:27;;;;;;;2.42;2.08;;;12.10;99.90;;;;;;4985443;28;20206;-63
2022/09/26 04:42:53;;;;;;;2.60;2.28;;;11.90;99.90;;;;;;4994433;28;20202;-63
2022/09/26 04:45:20;;;;;;;3.53;2.35;;;12.30;99.90;;;;;;4990028;28;20230;-63
2022/09/26 04:47:49;;;;;;;4.25;2.67;;;12.10;99.90;;;;;;5004176;28;20202;-63
2022/09/26 04:50:16;;;;;;;2.88;2.53;;;11.90;99.90;;;;;;4969581;28;20376;-62
2022/09/26 04:52:43;;;;;;;5.63;3.05;;;11.80;99.90;;;;;;4992769;28;20250;-62
2022/09/26 04:55:10;;;;;;;3.20;2.67;;;11.90;99.90;;;;;;4983277;28;20947;-63
2022/09/26 04:57:37;;;;;;;8.18;2.95;;;11.90;99.90;;;;;;4996601;28;20218;-63
2022/09/26 05:00:11;;;;;;;5.45;2.90;;;11.90;99.90;;;;;;4981800;28;20333;-63
2022/09/26 05:05:30;;;;;;;3.75;2.92;;;11.90;99.90;;;;;;4950316;22;20235;-63
2022/09/26 05:07:57;;;;;;;5.35;3.33;;;12.10;99.90;;;;;;4962087;28;20206;-63
2022/09/26 05:10:23;;;;;;;7.63;3.08;;;11.90;99.90;;;;;;4954096;28;20223;-62
2022/09/26 05:12:51;;;;;;;4.57;3.63;;;11.90;99.90;;;;;;4951081;28;20226;-63
2022/09/26 05:15:18;;;;;;;4.72;3.17;;;12.00;99.90;;;;;;4945492;28;20712;-63
2022/09/26 05:17:45;;;;;;;7.20;3.20;;;12.00;99.90;;;;;;4953978;28;20207;-63
2022/09/26 05:20:11;;;;;;;8.52;3.40;;;12.00;99.90;;;;;;4924641;28;20860;-63
2022/09/26 05:22:39;;;;;;;4.45;3.13;;;12.00;99.90;;;;;;4952079;28;20235;-62
2022/09/26 05:27:52;;;;;;;6.72;2.78;;;12.00;99.90;;;;;;4946803;28;20234;-63
2022/09/26 05:30:19;;;;;;;3.42;2.83;;;12.00;99.90;;;;;;4950418;28;20204;-63
2022/09/26 05:32:47;;;;;;;6.60;3.10;;;12.10;99.90;;;;;;4963662;28;20207;-63
2022/09/26 05:35:14;;;;;;;4.72;2.60;;;12.00;99.90;;;;;;4933255;28;20569;-63
2022/09/26 05:37:42;;;;;;;3.70;2.47;;;12.00;99.90;;;;;;4962953;28;20200;-62
2022/09/26 05:43:00;;;;;;;4.40;3.08;;;12.00;99.90;;;;;;4941187;28;20269;-63
2022/09/26 05:45:29;;;;;;;3.45;2.92;;;12.00;99.90;;;;;;4967721;28;20196;-63
2022/09/26 05:47:56;;;;;;;4.43;3.25;;;12.10;99.90;;;;;;4952280;28;21153;-63
2022/09/26 05:50:23;;;;;;;9.05;3.70;;;12.00;99.90;;;;;;4961796;28;20206;-62
2022/09/26 05:52:51;;;;;;;4.72;3.35;;;12.00;99.90;;;;;;4936923;28;20214;-63
2022/09/26 05:55:18;;;;;;;7.00;3.80;;;12.10;99.90;;;;;;4966506;28;20234;-63
2022/09/26 05:57:50;;;;;;;5.47;3.92;;;12.10;99.90;;;;;;4946321;28;20600;-64
2022/09/26 06:00:17;;;;;;;4.00;3.40;;;12.10;99.90;;;;;;4962339;28;20223;-63
2022/09/26 06:02:44;;;;;;;4.88;3.20;;;12.10;99.90;;;;;;4953717;28;20231;-63
2022/09/26 06:05:12;;;;;;;4.68;3.03;;;12.10;99.90;;;;;;4962520;28;20239;-64
2022/09/26 06:07:38;;;;;;;5.47;3.30;;;12.50;99.90;;;;;;4941597;28;20215;-64
2022/09/26 06:10:07;;;;;;;6.88;2.75;;;12.20;99.90;;;;;;4963410;28;20203;-64
2022/09/26 06:12:36;;;;;;;6.20;2.60;;;12.20;99.90;;;;;;4955039;28;20211;-64
2022/09/26 06:15:04;;;;;;;5.88;2.97;;;12.20;99.90;;;;;;4955571;28;20438;-64
2022/09/26 06:17:31;;;;;;;5.22;3.20;;;12.20;99.90;;;;;;4964186;28;20696;-64
2022/09/26 06:19:57;;;;;;;5.13;2.90;;;12.20;99.90;;;;;;4961467;28;20496;-64
2022/09/26 06:22:25;;;;;;;5.53;3.35;;;12.40;99.90;;;;;;4941864;28;20216;-64
2022/09/26 06:24:52;;;;;;;5.43;3.30;;;12.20;99.90;;;;;;4960977;28;20269;-65
2022/09/26 06:27:21;;;;;;;5.57;3.10;;;12.30;99.90;;;;;;4956160;28;20208;-64
2022/09/26 06:29:48;;;;;;;6.10;3.67;;;12.30;99.90;;;;;;4955841;28;20219;-64
2022/09/26 06:32:15;;;;;;;6.97;3.67;;;12.30;99.90;;;;;;4971456;28;20203;-64
2022/09/26 06:34:41;;;;;;;6.85;3.70;;;12.60;99.90;;;;;;4968777;28;20199;-64
2022/09/26 06:37:08;;;;;;;5.57;3.70;;;12.30;99.90;;;;;;4942724;28;20215;-64
2022/09/26 06:39:35;;;;;;;4.45;3.08;;;12.30;99.90;;;;;;4961277;28;20216;-64
2022/09/26 06:42:04;;;;;;;3.25;2.80;;;12.40;99.90;;;;;;4955875;28;20334;-64
2022/09/26 06:44:32;;;;;;;8.32;3.47;;;12.40;99.90;;;;;;4959212;28;20266;-64
2022/09/26 06:46:59;;;;;;;5.82;3.70;;;12.30;99.90;;;;;;4954337;28;20846;-64
2022/09/26 06:49:27;;;;;;;3.67;3.25;;;12.50;99.90;;;;;;4968416;28;20338;-64
2022/09/26 06:51:54;;;;;;;4.03;3.28;;;12.40;99.90;;;;;;4961859;28;20568;-64
2022/09/26 06:54:21;;;;;;;4.50;3.22;;;11.10;99.90;;;;;;4945442;28;20206;-64
2022/09/26 06:56:47;;;;;;;4.90;3.60;;;12.50;99.90;;;;;;4961779;28;20954;-64
2022/09/26 06:59:15;;;;;;;7.88;3.65;;;12.30;99.90;;;;;;4953850;28;20208;-64
2022/09/26 07:01:45;;;;;;;6.05;3.35;;;12.50;99.90;;;;;;4916071;28;20322;-64
2022/09/26 07:04:12;;;;;;;7.05;3.97;;;12.50;99.90;;;;;;4966983;28;20230;-64
2022/09/26 07:06:39;;;;;;;6.15;4.47;;;12.50;99.90;;;;;;4956169;28;20214;-64
2022/09/26 07:09:05;;;;;;;6.28;4.43;;;12.90;99.90;;;;;;4933896;28;20238;-64
2022/09/26 07:11:32;;;;;;;5.47;3.95;;;13.90;99.90;;;;;;4965767;28;20218;-63
2022/09/26 07:14:00;;;;;;;5.60;3.92;;;12.50;99.90;;;;;;4949528;28;20214;-64
2022/09/26 07:16:27;;;;;;;6.43;4.00;;;12.50;99.90;;;;;;4940496;28;20796;-64
2022/09/26 07:18:56;;;;;;;4.45;3.60;;;12.50;99.90;;;;;;4963573;28;20203;-64
2022/09/26 07:21:23;;;;;;;7.90;3.72;;;12.50;99.90;;;;;;4949250;28;20626;-63
2022/09/26 07:23:50;;;;;;;5.18;3.65;;;;;;;;;;4966237;28;20312;-63
2022/09/26 07:26:17;;;;;;;7.95;3.88;;;12.60;99.90;;;;;;4939691;28;20515;-64
2022/09/26 07:28:44;;;;;;;4.60;3.88;;;12.30;99.90;;;;;;4964485;28;20270;-64
2022/09/26 07:31:10;;;;;;;7.65;4.47;;;12.60;99.90;;;;;;4936186;28;20783;-64
2022/09/26 07:33:38;;;;;;;7.57;4.40;;;12.60;99.90;;;;;;4962744;28;20212;-64
2022/09/26 07:36:08;;;;;;;6.32;4.35;;;12.70;99.90;;;;;;4965220;28;20223;-64
2022/09/26 07:38:35;;;;;;;8.40;3.97;;;12.80;99.90;;;;;;4947006;28;20200;-64
2022/09/26 07:41:02;;;;;;;6.32;4.28;;;12.80;99.90;;;;;;4937304;28;20220;-63
2022/09/26 07:43:28;;;;;;;8.27;4.85;;;12.90;99.90;;;;;;4961607;28;20196;-64
2022/09/26 07:51:26;;;;;;;5.78;4.07;;;12.90;99.90;;;;;;4964362;28;20213;-64
2022/09/26 07:53:52;;;;;;;5.43;3.47;;;12.80;99.90;;;;;;4951572;28;20752;-64
2022/09/26 07:56:19;;;;;;;5.07;3.88;;;13.00;99.90;;;;;;4932581;28;20235;-64
2022/09/26 07:58:47;;;;;;;5.90;4.40;;;12.80;99.90;;;;;;4961468;28;20222;-65
2022/09/26 08:01:17;;;;;;;5.03;4.10;;;12.60;99.90;;;;;;4949107;28;21179;-64
2022/09/26 08:03:46;;;;;;;6.82;4.30;;;12.80;99.90;;;;;;4953702;28;20219;-64
2022/09/26 08:06:16;;;;;;;11.45;4.70;;;13.20;99.90;;;;;;4962192;28;20526;-64
2022/09/26 08:08:44;;;;;;;5.70;3.78;;;12.70;99.90;;;;;;4945300;28;20199;-64
2022/09/26 08:11:14;;;;;;;4.40;3.58;;;13.30;99.90;;;;;;4932302;28;20788;-64
2022/09/26 08:13:42;;;;;;;6.07;4.30;;;12.80;99.90;;;;;;4964593;28;20250;-64
2022/09/26 08:16:09;;;;;;;4.78;3.80;;;12.70;99.90;;;;;;4948948;28;20223;-63
2022/09/26 08:18:36;;;;;;;9.52;3.72;;;12.70;99.90;;;;;;4940774;28;20882;-63
2022/09/26 08:21:04;;;;;;;5.32;3.33;;;12.70;99.90;;;;;;4963285;28;20215;-64
2022/09/26 08:23:31;;;;;;;4.18;3.17;;;12.80;99.90;;;;;;4951430;28;20273;-64
2022/09/26 08:26:02;;;;;;;6.53;3.40;;;12.70;99.90;;;;;;4966047;28;20296;-64
2022/09/26 08:28:29;;;;;;;8.93;3.35;;;12.70;99.90;;;;;;4935975;28;20730;-64
2022/09/26 08:30:59;;;;;;;5.97;3.38;;;12.60;99.90;;;;;;4962069;28;20224;-64
2022/09/26 08:33:26;;;;;;;4.18;3.15;;;;;;;;;;4950478;28;22744;-64
2022/09/26 08:35:53;;;;;;;5.82;3.08;;;12.70;99.90;;;;;;4964843;28;20236;-64
2022/09/26 08:38:19;;;;;;;3.35;3.03;;;12.70;99.90;;;;;;4941925;28;20586;-64
2022/09/26 08:40:54;;;;;;;4.18;3.35;;;12.70;99.90;;;;;;4949180;28;20211;-65
2022/09/26 08:43:48;;;;;;;5.43;3.30;;;12.60;99.90;;;;;;4936812;28;20526;-64
2022/09/26 08:46:44;;;;;;;4.28;3.38;;;12.70;99.90;;;;;;4964758;28;20199;-64
2022/09/26 08:49:38;;;;;;;4.18;3.45;;;12.60;99.90;;;;;;4954769;28;20208;-64
2022/09/26 08:52:16;;;;;;;3.35;2.42;;;12.70;99.90;;;;;;4965794;28;20674;-63
2022/09/26 08:54:44;;;;;;;5.10;2.90;;;12.90;99.90;;;;;;4947390;28;20203;-64
2022/09/26 08:57:22;;;;;;;4.03;2.80;;;12.50;99.90;;;;;;4969853;28;20233;-65
2022/09/26 08:59:52;;;;;;;3.53;2.80;;;12.70;99.90;;;;;;4931148;28;20214;-65
2022/09/26 09:02:28;;;;;;;6.82;3.00;;;12.70;99.90;;;;;;4956949;28;21028;-64
2022/09/26 09:05:00;;;;;;;10.60;3.40;;;12.70;99.90;;;;;;4941947;28;20227;-64
2022/09/26 09:07:27;;;;;;;4.70;3.28;;;12.80;99.90;;;;;;4952247;28;20211;-64
2022/09/26 09:09:59;;;;;;;5.40;3.00;;;12.80;99.90;;;;;;4955715;28;20211;-64
2022/09/26 09:12:35;;;;;;;6.35;2.90;;;12.80;99.90;;;;;;4939051;28;20211;-64
2022/09/26 09:15:32;;;;;;;3.70;3.35;;;13.70;99.90;;;;;;4939206;28;20219;-64
2022/09/26 09:18:12;;;;;;;4.82;3.10;;;12.80;99.90;;;;;;4965680;28;20207;-63
2022/09/26 09:20:52;;;;;;;7.03;3.85;;;12.80;99.90;;;;;;4952419;28;20213;-64
2022/09/26 09:23:40;;;;;;;3.70;3.28;;;12.80;99.90;;;;;;4965761;28;20530;-64
2022/09/26 09:26:13;;;;;;;5.88;3.80;;;12.80;99.90;;;;;;4949490;28;20229;-64
2022/09/26 09:28:56;;;;;;;7.97;3.97;;;12.80;99.90;;;;;;4935717;28;20729;-64
2022/09/26 09:31:28;;;;;;;4.75;3.33;;;12.80;99.90;;;;;;4960623;28;20220;-63
2022/09/26 09:33:59;;;;;;;5.03;3.28;;;12.80;99.90;;;;;;4959168;28;20825;-64
2022/09/26 09:36:30;;;;;;;5.50;3.92;;;12.80;99.90;;;;;;4946205;28;20782;-64
2022/09/26 09:39:04;;;;;;;4.22;3.50;;;12.80;99.90;;;;;;4953656;28;20207;-64
2022/09/26 09:41:38;;;;;;;5.68;3.60;;;12.80;99.90;;;;;;4955778;28;20689;-64
2022/09/26 09:44:13;;;;;;;6.07;4.13;;;12.90;99.90;;;;;;4948035;28;20235;-64
2022/09/26 09:46:42;;;;;;;7.70;3.17;;;12.90;99.90;;;;;;4937166;28;20241;-64
2022/09/26 09:49:15;;;;;;;6.22;3.50;;;;;;;;;;4961541;28;20776;-64
2022/09/26 09:51:50;;;;;;;4.88;3.60;;;12.90;99.90;;;;;;4946957;28;20240;-64
2022/09/26 09:54:37;;;;;;;4.72;3.38;;;12.90;99.90;;;;;;4959375;28;20326;-64
2022/09/26 09:57:26;;;;;;;5.75;3.33;;;13.40;99.90;;;;;;4945726;28;20482;-65
2022/09/26 10:00:04;;;;;;;6.72;3.75;;;12.80;99.90;;;;;;4943515;28;20195;-65
2022/09/26 10:02:39;;;;;;;4.82;3.47;;;13.00;99.90;;;;;;4963943;28;20681;-64
2022/09/26 10:05:21;;;;;;;6.72;3.55;;;13.00;99.90;;;;;;4957939;28;20464;-65
2022/09/26 10:07:48;;;;;;;5.95;3.60;;;13.10;99.90;;;;;;4950244;28;20360;-64
2022/09/26 10:10:20;;;;;;;6.78;3.30;;;13.10;99.90;;;;;;4949860;28;20215;-64
2022/09/26 10:12:48;;;;;;;10.07;3.50;;;11.50;99.90;;;;;;4951119;28;20204;-64
2022/09/26 10:15:19;;;;;;;6.93;3.55;;;13.10;99.90;;;;;;4952566;28;20224;-64
2022/09/26 10:18:04;;;;;;;6.68;3.30;;;13.20;99.90;;;;;;4936044;28;20243;-64
2022/09/26 10:20:41;;;;;;;8.13;3.70;;;13.20;99.90;;;;;;4960062;28;20226;-64
2022/09/26 10:23:20;;;;;;;8.02;3.85;;;13.20;99.90;;;;;;4945789;28;20546;-64
2022/09/26 10:25:49;;;;;;;4.10;2.78;;;13.20;99.90;;;;;;4963299;28;20657;-64
2022/09/26 10:28:27;;;;;;;3.97;3.20;;;13.10;99.90;;;;;;4942099;28;23384;-63
2022/09/26 10:30:59;;;;;;;10.65;3.25;;;11.80;99.90;;;;;;4943454;28;20219;-65
2022/09/26 10:33:32;;;;;;;5.97;3.10;;;13.20;99.90;;;;;;4964293;28;20199;-64
2022/09/26 10:36:10;;;;;;;5.22;3.10;;;13.10;99.90;;;;;;4961428;28;20270;-64
2022/09/26 10:41:40;;;;;;;6.22;3.20;;;12.80;99.90;;;;;;4968050;28;20265;-64
2022/09/26 10:44:21;;;;;;;7.88;3.30;;;13.10;99.90;;;;;;4942925;28;20678;-64
2022/09/26 10:46:50;;;;;;;5.60;3.28;;;13.20;99.90;;;;;;4942738;28;20678;-63
2022/09/26 10:49:22;;;;;;;6.15;3.50;;;13.10;99.90;;;;;;4957982;28;21563;-63
2022/09/26 10:51:57;;;;;;;6.70;3.55;;;13.10;99.90;;;;;;4963647;28;20224;-63
2022/09/26 10:54:32;;;;;;;7.68;3.45;;;13.20;99.90;;;;;;4949987;28;20226;-64
2022/09/26 10:56:59;;;;;;;5.40;3.20;;;;;;;;;;4944664;28;20810;-65
2022/09/26 10:59:30;;;;;;;8.35;3.45;;;12.90;99.90;;;;;;4946450;28;20200;-64
2022/09/26 11:01:58;;;;;;;4.68;3.10;;;13.30;99.90;;;;;;4920497;28;20784;-64
2022/09/26 11:07:18;;;;;;;5.18;3.53;;;13.20;99.90;;;;;;4917484;28;20219;-65
2022/09/26 11:09:46;;;;;;;5.05;3.47;;;13.20;99.90;;;;;;4967072;28;20676;-64
2022/09/26 11:12:27;;;;;;;9.43;4.25;;;13.20;99.90;;;;;;4970437;28;20230;-64
2022/09/26 11:14:56;;;;;;;7.35;3.47;;;13.30;99.90;;;;;;4968483;28;20215;-64
2022/09/26 11:17:24;;;;;;;6.75;4.30;;;;;;;;;;4968632;28;20238;-63
2022/09/26 11:19:57;;;;;;;6.15;4.03;;;13.20;99.90;;;;;;4964296;28;20210;-64
2022/09/26 11:22:31;;;;;;;5.90;3.88;;;13.40;99.90;;;;;;4967748;28;20210;-65
2022/09/26 11:25:07;;;;;;;7.38;4.13;;;13.30;99.90;;;;;;4971471;28;20229;-64
2022/09/26 11:27:42;;;;;;;5.97;4.05;;;13.30;99.90;;;;;;4977696;28;20205;-64
2022/09/26 11:30:13;;;;;;;6.72;4.15;;;13.30;99.90;;;;;;4969503;28;20218;-63
2022/09/26 11:32:43;;;;;;;4.55;4.03;;;13.20;99.90;;;;;;4961091;28;20222;-64
2022/09/26 11:35:16;;;;;;;5.05;3.90;;;13.30;99.90;;;;;;4984139;28;20207;-64
2022/09/26 11:38:02;;;;;;;6.53;4.20;;;13.30;99.90;;;;;;4963427;28;20587;-64
2022/09/26 11:40:40;;;;;;;5.20;4.13;;;13.30;99.90;;;;;;4963937;28;20696;-63
2022/09/26 11:43:28;;;;;;;7.15;4.60;;;13.30;99.90;;;;;;4974145;28;20207;-64
2022/09/26 11:46:13;;;;;;;6.90;3.75;;;13.20;99.90;;;;;;4971551;28;20206;-64
2022/09/26 11:49:02;;;;;;;10.02;3.95;;;13.30;99.90;;;;;;4939273;28;20224;-64
2022/09/26 11:51:45;;;;;;;8.95;4.90;;;13.30;99.90;;;;;;4972644;28;20203;-64
2022/09/26 11:54:31;;;;;;;4.72;4.05;;;13.20;99.90;;;;;;4968151;28;20302;-64
2022/09/26 11:57:07;;;;;;;7.38;4.40;;;13.30;99.90;;;;;;4983237;28;21229;-65
2022/09/26 12:00:05;;;;;;;6.72;4.28;;;13.30;99.90;;;;;;4963287;28;20204;-64
2022/09/26 12:03:07;;;;;;;4.93;4.43;;;13.20;99.90;;;;;;4954626;28;20223;-64
2022/09/26 12:05:44;;;;;;;8.43;4.30;;;13.30;99.90;;;;;;4983830;28;21274;-64
2022/09/26 12:08:29;;;;;;;7.40;4.53;;;13.20;99.90;;;;;;4974967;28;20236;-63
2022/09/26 12:11:09;;;;;;;4.82;4.32;;;13.30;99.90;;;;;;4984455;28;20209;-63
2022/09/26 12:13:44;;;;;;;6.82;4.00;;;;;;;;;;4994324;28;20222;-63
2022/09/26 12:19:03;;;;;;;6.50;4.18;;;13.20;99.90;;;;;;5014551;23;20232;-64
2022/09/26 12:24:54;;;;;;;5.65;3.63;;;13.40;99.90;;;;;;5009645;28;20311;-65
2022/09/26 12:27:28;;;;;;;6.03;4.18;;;13.30;99.90;;;;;;5058344;28;20202;-64
2022/09/26 12:30:03;;;;;;;6.75;4.18;;;14.50;99.90;;;;;;5050407;28;20199;-65
2022/09/26 12:32:46;;;;;;;7.28;3.92;;;13.40;99.90;;;;;;5024675;28;20708;-63
2022/09/26 12:35:52;;;;;;;5.43;4.05;;;13.30;99.90;;;;;;5024791;28;20709;-65
2022/09/26 12:38:36;;;;;;;5.18;3.53;;;13.10;99.90;;;;;;5043196;28;21831;-64
2022/09/26 12:41:13;;;;;;;5.80;4.00;;;13.30;99.90;;;;;;5051692;28;20252;-64
2022/09/26 12:44:31;;;;;;;6.20;3.67;;;13.30;99.90;;;;;;5065069;28;20215;-64
2022/09/26 12:47:18;;;;;;;5.72;3.70;;;13.30;99.90;;;;;;4949656;28;20653;-64
2022/09/26 12:50:06;;;;;;;4.38;2.97;;;14.60;99.90;;;;;;5029448;28;20223;-64
2022/09/26 12:52:54;;;;;;;4.32;3.22;;;13.30;99.90;;;;;;5051678;28;20215;-65
2022/09/26 12:55:31;;;;;;;6.25;3.22;;;13.30;99.90;;;;;;5035132;28;20200;-66
2022/09/26 12:58:14;;;;;;;9.07;3.80;;;13.30;99.90;;;;;;5063734;28;20232;-64
2022/09/26 13:00:46;;;;;;;5.00;3.08;;;13.20;99.90;;;;;;5054684;28;21320;-66
2022/09/26 13:03:50;;;;;;;3.65;3.28;;;13.20;99.90;;;;;;5039013;28;20204;-64
2022/09/26 13:06:42;;;;;;;5.65;3.55;;;14.10;99.90;;;;;;5021868;28;20211;-65
2022/09/26 13:09:24;;;;;;;7.18;3.30;;;13.20;99.90;;;;;;5036250;28;20204;-65
2022/09/26 13:12:05;;;;;;;7.25;3.75;;;13.30;99.90;;;;;;5062311;28;20216;-64
2022/09/26 13:14:45;;;;;;;4.22;3.08;;;13.30;99.90;;;;;;5060757;28;20197;-65
2022/09/26 13:17:17;;;;;;;5.07;3.40;;;13.30;99.90;;;;;;5049008;28;20243;-64
2022/09/26 13:19:50;;;;;;;3.17;2.88;;;13.30;99.90;;;;;;5049546;28;20704;-65
2022/09/26 13:22:31;;;;;;;4.40;3.65;;;13.30;99.90;;;;;;5013426;28;20378;-65
2022/09/26 13:25:06;;;;;;;4.53;3.13;;;13.30;99.90;;;;;;5046315;28;20223;-64
2022/09/26 13:27:39;;;;;;;5.03;3.42;;;13.20;99.90;;;;;;5057744;28;21156;-64
2022/09/26 13:30:15;;;;;;;5.53;3.83;;;13.20;99.90;;;;;;5048796;28;20223;-64
2022/09/26 13:32:52;;;;;;;5.10;3.78;;;13.20;99.90;;;;;;5040335;28;20233;-65
2022/09/26 13:35:22;;;;;;;6.57;3.88;;;13.30;99.90;;;;;;5034288;28;20229;-65
2022/09/26 13:38:00;;;;;;;6.82;3.58;;;13.30;99.90;;;;;;5029981;28;20606;-65
2022/09/26 13:40:36;;;;;;;3.92;3.33;;;13.40;99.90;;;;;;5041734;28;20216;-65
2022/09/26 13:43:15;;;;;;;4.15;3.75;;;13.30;99.90;;;;;;5057088;28;20212;-65